createdAt,value
2023-02-19T00:00:33.437Z,10.80
2023-02-19T00:03:06.762Z,14.23
2023-02-19T00:05:38.835Z,19.58
2023-02-19T00:08:09.489Z,15.20
2023-02-19T00:10:39.990Z,16.88
2023-02-19T00:13:10.890Z,16.83
2023-02-19T00:15:41.408Z,17.65
2023-02-19T00:18:14.633Z,27.13
2023-02-19T00:20:45.196Z,16.02
2023-02-19T00:23:15.996Z,20.17
2023-02-19T00:25:46.452Z,32.50
2023-02-19T00:28:17.060Z,32.55
2023-02-19T00:30:47.560Z,28.00
2023-02-19T00:33:20.957Z,34.22
2023-02-19T00:35:51.569Z,30.17
2023-02-19T00:38:22.250Z,24.52
2023-02-19T00:40:52.722Z,32.20
2023-02-19T00:43:24.205Z,28.10
2023-02-19T00:45:54.754Z,20.30
2023-02-19T00:48:29.019Z,25.92
2023-02-19T00:50:59.479Z,26.67
2023-02-19T00:53:30.126Z,27.50
2023-02-19T00:56:00.648Z,27.52
2023-02-19T00:58:31.458Z,24.73
2023-02-19T01:01:02.652Z,25.50
2023-02-19T01:03:36.015Z,28.40
2023-02-19T01:06:07.987Z,27.30
2023-02-19T01:08:38.838Z,24.88
2023-02-19T01:11:10.928Z,24.77
2023-02-19T01:13:41.863Z,24.38
2023-02-19T01:16:15.889Z,13.07
2023-02-19T01:18:50.857Z,21.10
2023-02-19T01:23:54.577Z,17.33
2023-02-19T01:26:26.826Z,12.13
2023-02-19T01:28:57.554Z,12.38
2023-02-19T01:31:29.227Z,10.52
2023-02-19T01:34:04.747Z,20.38
2023-02-19T01:36:38.025Z,19.65
2023-02-19T01:39:11.538Z,15.80
2023-02-19T01:41:43.910Z,13.60
2023-02-19T01:44:44.059Z,20.70
2023-02-19T01:47:14.850Z,19.67
2023-02-19T01:49:52.525Z,15.55
2023-02-19T01:52:28.835Z,17.48
2023-02-19T01:55:01.083Z,12.48
2023-02-19T01:57:38.115Z,12.07
2023-02-19T02:00:13.586Z,17.60
2023-02-19T02:02:46.532Z,9.80
2023-02-19T02:05:28.117Z,8.07
2023-02-19T02:08:11.150Z,8.23
2023-02-19T02:10:42.247Z,13.68
2023-02-19T02:13:13.280Z,11.68
2023-02-19T02:16:16.398Z,14.00
2023-02-19T02:19:01.623Z,16.05
2023-02-19T02:21:56.544Z,17.65
2023-02-19T02:24:53.193Z,17.42
2023-02-19T02:27:38.093Z,18.08
2023-02-19T02:30:22.564Z,18.52
2023-02-19T02:32:59.319Z,15.50
2023-02-19T02:35:33.863Z,15.10
2023-02-19T02:38:08.207Z,15.38
2023-02-19T02:40:39.709Z,15.23
2023-02-19T02:43:10.417Z,13.30
2023-02-19T02:45:44.328Z,14.52
2023-02-19T02:48:32.882Z,13.90
2023-02-19T02:51:09.191Z,14.00
2023-02-19T02:54:03.200Z,10.98
2023-02-19T02:56:35.150Z,14.77
2023-02-19T02:59:09.776Z,8.15
2023-02-19T03:01:58.606Z,4.77
2023-02-19T03:04:36.410Z,4.60
2023-02-19T03:07:11.029Z,4.63
2023-02-19T03:09:45.727Z,3.85
2023-02-19T03:12:37.802Z,3.45
2023-02-19T03:15:26.541Z,3.63
2023-02-19T03:18:16.788Z,3.20
2023-02-19T03:20:51.897Z,3.10
2023-02-19T03:23:47.321Z,2.30
2023-02-19T03:26:18.033Z,2.65
2023-02-19T03:29:08.297Z,2.63
2023-02-19T03:31:43.046Z,5.75
2023-02-19T03:34:22.019Z,10.95
2023-02-19T03:37:00.044Z,14.40
2023-02-19T03:39:31.220Z,8.98
2023-02-19T03:42:08.969Z,4.70
2023-02-19T03:44:45.202Z,3.67
2023-02-19T03:47:21.028Z,3.40
2023-02-19T03:49:59.902Z,3.20
2023-02-19T03:52:41.238Z,3.63
2023-02-19T03:55:17.122Z,3.75
2023-02-19T03:57:54.886Z,3.53
2023-02-19T04:00:31.080Z,3.28
2023-02-19T04:03:07.028Z,3.80
2023-02-19T04:05:44.727Z,3.90
2023-02-19T04:08:19.043Z,3.80
2023-02-19T04:10:57.777Z,3.53
2023-02-19T04:13:35.047Z,3.90
2023-02-19T04:16:10.255Z,4.30
2023-02-19T04:18:44.068Z,4.30
2023-02-19T04:21:18.805Z,4.60
2023-02-19T04:23:50.350Z,4.32
2023-02-19T04:26:23.338Z,4.72
2023-02-19T04:28:53.995Z,4.95
2023-02-19T04:31:25.318Z,5.15
2023-02-19T04:33:56.392Z,4.45
2023-02-19T04:36:29.556Z,5.03
2023-02-19T04:39:00.139Z,4.20
2023-02-19T04:41:30.627Z,4.20
2023-02-19T04:44:01.311Z,4.82
2023-02-19T04:46:31.900Z,4.00
2023-02-19T04:49:02.501Z,4.10
2023-02-19T04:51:35.753Z,3.40
2023-02-19T04:54:06.558Z,4.10
2023-02-19T04:56:37.093Z,4.28
2023-02-19T04:59:07.797Z,4.38
2023-02-19T05:01:39.444Z,4.55
2023-02-19T05:04:10.019Z,4.80
2023-02-19T05:06:43.162Z,5.20
2023-02-19T05:09:13.818Z,4.60
2023-02-19T05:11:44.392Z,4.28
2023-02-19T05:14:15.037Z,4.72
2023-02-19T05:16:45.612Z,4.18
2023-02-19T05:19:16.298Z,4.45
2023-02-19T05:21:49.744Z,4.25
2023-02-19T05:24:20.499Z,4.85
2023-02-19T05:26:51.128Z,5.38
2023-02-19T05:29:21.824Z,5.50
2023-02-19T05:31:52.444Z,5.22
2023-02-19T05:34:23.177Z,7.75
2023-02-19T05:36:56.404Z,9.23
2023-02-19T05:39:26.927Z,10.70
2023-02-19T05:41:57.485Z,11.38
2023-02-19T05:44:28.381Z,6.80
2023-02-19T05:46:58.942Z,6.70
2023-02-19T05:49:29.794Z,5.93
2023-02-19T05:52:02.900Z,5.38
2023-02-19T05:54:33.799Z,7.50
2023-02-19T05:57:04.535Z,7.50
2023-02-19T05:59:35.231Z,5.25
2023-02-19T06:02:05.750Z,5.57
2023-02-19T06:04:36.393Z,5.95
2023-02-19T06:07:09.465Z,6.22
2023-02-19T06:09:40.041Z,7.22
2023-02-19T06:12:11.126Z,7.22
2023-02-19T06:14:41.731Z,7.45
2023-02-19T06:17:12.189Z,8.57
2023-02-19T06:19:42.868Z,8.18
2023-02-19T06:22:17.805Z,8.40
2023-02-19T06:24:48.413Z,11.93
2023-02-19T06:27:19.082Z,11.18
2023-02-19T06:29:49.667Z,12.65
2023-02-19T06:32:20.285Z,13.35
2023-02-19T06:34:50.897Z,10.68
2023-02-19T06:37:24.142Z,11.23
2023-02-19T06:39:54.799Z,10.73
2023-02-19T06:42:25.410Z,10.70
2023-02-19T06:44:56.173Z,8.77
2023-02-19T06:47:26.733Z,9.27
2023-02-19T06:49:57.319Z,9.13
2023-02-19T06:52:30.513Z,9.32
2023-02-19T06:55:01.050Z,9.00
2023-02-19T06:57:33.856Z,9.75
2023-02-19T07:00:05.379Z,10.30
2023-02-19T07:02:35.981Z,10.50
2023-02-19T07:05:06.498Z,11.38
2023-02-19T07:07:39.700Z,9.82
2023-02-19T07:10:10.777Z,10.13
2023-02-19T07:12:41.413Z,10.50
2023-02-19T07:15:13.167Z,9.77
2023-02-19T07:17:43.644Z,10.20
2023-02-19T07:20:15.154Z,11.18
2023-02-19T07:22:48.409Z,11.35
2023-02-19T07:25:19.333Z,11.20
2023-02-19T07:27:49.865Z,12.85
2023-02-19T07:30:20.841Z,14.00
2023-02-19T07:32:51.431Z,15.50
2023-02-19T07:35:22.110Z,16.52
2023-02-19T07:37:55.281Z,18.05
2023-02-19T07:40:25.923Z,19.30
2023-02-19T07:42:56.527Z,19.58
2023-02-19T07:45:27.110Z,19.35
2023-02-19T07:47:57.633Z,21.63
2023-02-19T07:50:28.203Z,21.45
2023-02-19T07:53:01.400Z,19.17
2023-02-19T07:55:31.979Z,19.70
2023-02-19T07:58:05.839Z,16.55
2023-02-19T08:00:36.879Z,6.25
2023-02-19T08:03:04.959Z,4.78
2023-02-19T08:05:37.243Z,2.90
2023-02-19T08:08:12.477Z,1.92
2023-02-19T08:13:26.008Z,1.50
2023-02-19T08:16:10.960Z,1.77
2023-02-19T08:18:47.681Z,2.20
2023-02-19T08:21:20.713Z,4.38
2023-02-19T08:23:53.850Z,2.88
2023-02-19T08:26:24.523Z,3.05
2023-02-19T08:28:54.946Z,2.95
2023-02-19T08:31:25.555Z,2.60
2023-02-19T08:33:56.276Z,1.40
2023-02-19T08:36:26.777Z,2.95
2023-02-19T08:38:59.897Z,1.90
2023-02-19T08:41:30.373Z,1.90
2023-02-19T08:44:00.938Z,1.85
2023-02-19T08:46:33.493Z,2.30
2023-02-19T08:49:05.605Z,1.63
2023-02-19T08:51:36.206Z,2.10
2023-02-19T08:54:09.465Z,2.28
2023-02-19T08:56:40.037Z,2.35
2023-02-19T08:59:10.629Z,2.05
2023-02-19T09:01:41.263Z,1.60
2023-02-19T09:04:15.301Z,1.90
2023-02-19T09:06:45.952Z,2.40
2023-02-19T09:09:19.133Z,2.03
2023-02-19T09:11:49.634Z,3.53
2023-02-19T09:14:20.329Z,1.60
2023-02-19T09:16:50.908Z,3.20
2023-02-19T09:19:21.581Z,1.30
2023-02-19T09:21:52.189Z,2.10
2023-02-19T09:24:25.900Z,1.70
2023-02-19T09:26:57.933Z,2.20
2023-02-19T09:29:30.277Z,2.88
2023-02-19T09:32:01.553Z,6.38
2023-02-19T09:34:32.629Z,1.40
2023-02-19T09:37:03.283Z,2.10
2023-02-19T09:39:36.707Z,1.40
2023-02-19T09:42:16.000Z,1.35
2023-02-19T09:44:48.675Z,2.15
2023-02-19T09:47:22.394Z,1.88
2023-02-19T09:49:55.580Z,2.33
2023-02-19T09:52:34.422Z,2.50
2023-02-19T09:55:17.466Z,1.20
2023-02-19T09:57:48.987Z,1.15
2023-02-19T10:00:25.645Z,1.42
2023-02-19T10:02:58.430Z,2.00
2023-02-19T10:05:29.979Z,2.70
2023-02-19T10:08:01.805Z,1.33
2023-02-19T10:10:38.583Z,1.10
2023-02-19T10:13:22.587Z,1.90
2023-02-19T10:15:55.210Z,1.60
2023-02-19T10:18:28.526Z,2.05
2023-02-19T10:21:00.550Z,1.98
2023-02-19T10:23:31.469Z,1.45
2023-02-19T10:26:04.755Z,3.38
2023-02-19T10:28:37.575Z,1.83
2023-02-19T10:31:20.836Z,1.15
2023-02-19T10:33:53.820Z,1.55
2023-02-19T10:36:32.277Z,2.65
2023-02-19T10:39:04.769Z,1.70
2023-02-19T10:41:44.420Z,3.20
2023-02-19T10:44:21.139Z,1.48
2023-02-19T10:46:55.464Z,1.40
2023-02-19T10:49:30.715Z,1.03
2023-02-19T10:52:05.710Z,1.75
2023-02-19T10:54:36.972Z,1.50
2023-02-19T10:57:30.551Z,1.92
2023-02-19T11:00:03.836Z,1.52
2023-02-19T11:02:35.766Z,1.95
2023-02-19T11:05:12.255Z,1.70
2023-02-19T11:07:49.273Z,1.50
2023-02-19T11:10:31.254Z,1.40
2023-02-19T11:13:06.749Z,1.80
2023-02-19T11:15:39.228Z,1.42
2023-02-19T11:18:23.809Z,2.50
2023-02-19T11:20:57.000Z,1.50
2023-02-19T11:23:31.264Z,1.45
2023-02-19T11:26:04.646Z,1.50
2023-02-19T11:28:40.420Z,4.50
2023-02-19T11:31:27.767Z,3.15
2023-02-19T11:34:01.200Z,1.70
2023-02-19T11:36:34.521Z,1.50
2023-02-19T11:39:22.678Z,1.60
2023-02-19T11:42:15.894Z,2.05
2023-02-19T11:45:03.389Z,2.00
2023-02-19T11:48:01.579Z,2.25
2023-02-19T11:50:42.932Z,1.42
2023-02-19T11:53:24.534Z,1.40
2023-02-19T11:56:13.628Z,2.00
2023-02-19T11:59:02.938Z,1.52
2023-02-19T12:01:50.999Z,1.48
2023-02-19T12:04:57.802Z,1.23
2023-02-19T12:07:53.101Z,1.30
2023-02-19T12:10:31.572Z,2.33
2023-02-19T12:13:10.690Z,1.70
2023-02-19T12:16:05.746Z,1.58
2023-02-19T12:19:02.183Z,1.73
2023-02-19T12:21:46.331Z,2.10
2023-02-19T12:24:37.278Z,1.20
2023-02-19T12:27:23.551Z,2.20
2023-02-19T12:30:12.605Z,1.60
2023-02-19T12:32:56.671Z,1.33
2023-02-19T12:35:52.029Z,1.20
2023-02-19T12:38:33.763Z,1.17
2023-02-19T12:41:27.993Z,1.23
2023-02-19T12:44:02.595Z,1.00
2023-02-19T12:46:39.833Z,1.00
2023-02-19T12:49:16.018Z,1.45
2023-02-19T12:51:55.414Z,1.92
2023-02-19T12:54:31.152Z,1.50
2023-02-19T12:57:05.927Z,1.60
2023-02-19T12:59:42.488Z,1.60
2023-02-19T13:02:20.989Z,1.40
2023-02-19T13:04:57.911Z,2.42
2023-02-19T13:07:37.169Z,1.80
2023-02-19T13:10:27.623Z,1.67
2023-02-19T13:13:01.659Z,1.40
2023-02-19T13:15:37.903Z,1.30
2023-02-19T13:18:16.773Z,1.42
2023-02-19T13:20:51.877Z,1.85
2023-02-19T13:23:42.072Z,1.05
2023-02-19T13:26:32.509Z,2.03
2023-02-19T13:29:17.345Z,2.03
2023-02-19T13:32:04.758Z,3.40
2023-02-19T13:34:54.998Z,2.53
2023-02-19T13:37:26.955Z,1.90
2023-02-19T13:40:03.547Z,1.83
2023-02-19T13:42:37.046Z,1.63
2023-02-19T13:45:10.156Z,1.65
2023-02-19T13:48:03.329Z,1.45
2023-02-19T13:50:35.821Z,2.97
2023-02-19T13:53:41.387Z,1.75
2023-02-19T13:56:42.696Z,1.88
2023-02-19T13:59:36.470Z,2.20
2023-02-19T14:02:18.797Z,1.65
2023-02-19T14:04:53.478Z,1.67
2023-02-19T14:07:55.488Z,1.95
2023-02-19T14:10:57.949Z,2.30
2023-02-19T14:13:58.369Z,1.80
2023-02-19T14:16:54.650Z,2.55
2023-02-19T14:20:01.159Z,2.05
2023-02-19T14:22:55.685Z,2.53
2023-02-19T14:25:52.946Z,6.70
2023-02-19T14:28:30.787Z,4.57
2023-02-19T14:31:03.937Z,5.35
2023-02-19T14:33:40.365Z,4.47
2023-02-19T14:36:22.211Z,2.70
2023-02-19T14:38:56.409Z,2.40
2023-02-19T14:41:28.960Z,2.85
2023-02-19T14:44:02.313Z,2.78
2023-02-19T14:46:35.898Z,3.75
2023-02-19T14:49:18.412Z,3.03
2023-02-19T14:51:54.298Z,3.80
2023-02-19T14:54:37.876Z,3.17
2023-02-19T14:57:18.560Z,5.43
2023-02-19T14:59:58.607Z,3.53
2023-02-19T15:02:30.786Z,3.80
2023-02-19T15:05:04.407Z,3.22
2023-02-19T15:07:36.909Z,2.70
2023-02-19T15:10:08.838Z,3.70
2023-02-19T15:12:52.912Z,4.40
2023-02-19T15:15:28.696Z,5.15
2023-02-19T15:18:02.534Z,6.72
2023-02-19T15:20:38.185Z,8.10
2023-02-19T15:23:10.702Z,8.15
2023-02-19T15:25:42.699Z,5.57
2023-02-19T15:28:23.720Z,7.70
2023-02-19T15:30:55.133Z,6.35
2023-02-19T15:33:27.373Z,8.30
2023-02-19T15:36:03.720Z,7.60
2023-02-19T15:38:34.818Z,5.53
2023-02-19T15:41:05.803Z,5.25
2023-02-19T15:43:44.521Z,5.93
2023-02-19T15:46:21.020Z,7.18
2023-02-19T15:48:56.293Z,9.18
2023-02-19T15:51:36.579Z,12.18
2023-02-19T15:54:19.793Z,22.67
2023-02-19T15:56:53.282Z,14.52
2023-02-19T15:59:31.848Z,34.33
2023-02-19T16:02:04.501Z,157.00
2023-02-19T16:04:38.558Z,121.03
2023-02-19T16:07:32.143Z,75.13
2023-02-19T16:10:23.747Z,95.38
2023-02-19T16:13:01.752Z,79.88
2023-02-19T16:15:34.988Z,76.93
2023-02-19T16:18:05.679Z,71.05
2023-02-19T16:20:38.497Z,43.00
2023-02-19T16:23:16.519Z,32.05
2023-02-19T16:25:47.911Z,25.38
2023-02-19T16:28:25.835Z,22.95
2023-02-19T16:31:00.070Z,25.20
2023-02-19T16:33:39.804Z,24.60
2023-02-19T16:36:29.015Z,27.25
2023-02-19T16:39:24.326Z,25.17
2023-02-19T16:42:15.466Z,25.00
2023-02-19T16:44:52.465Z,25.38
2023-02-19T16:47:37.378Z,25.42
2023-02-19T16:50:16.011Z,23.50
2023-02-19T16:52:57.323Z,24.02
2023-02-19T16:55:32.522Z,21.73
2023-02-19T16:58:03.310Z,21.63
2023-02-19T17:00:35.266Z,21.42
2023-02-19T17:03:10.002Z,24.75
2023-02-19T17:05:42.039Z,22.20
2023-02-19T17:08:35.246Z,22.17
2023-02-19T17:11:10.230Z,21.30
2023-02-19T17:13:41.153Z,18.63
2023-02-19T17:16:15.056Z,25.92
2023-02-19T17:18:45.614Z,30.48
2023-02-19T17:21:18.521Z,32.75
2023-02-19T17:23:49.309Z,26.02
2023-02-19T17:26:25.838Z,36.30
2023-02-19T17:28:56.812Z,38.53
2023-02-19T17:31:27.828Z,28.02
2023-02-19T17:33:59.110Z,30.30
2023-02-19T17:36:31.807Z,30.48
2023-02-19T17:39:03.449Z,36.55
2023-02-19T17:41:36.720Z,30.85
2023-02-19T17:44:07.312Z,32.40
2023-02-19T17:46:37.981Z,34.88
2023-02-19T17:49:09.002Z,37.05
2023-02-19T17:51:39.673Z,35.80
2023-02-19T17:54:10.303Z,35.15
2023-02-19T17:56:46.218Z,42.90
2023-02-19T17:59:18.356Z,51.42
2023-02-19T18:01:49.125Z,38.13
2023-02-19T18:04:19.750Z,36.03
2023-02-19T18:06:50.922Z,31.80
2023-02-19T18:09:22.612Z,39.83
2023-02-19T18:11:55.834Z,38.78
2023-02-19T18:14:26.626Z,38.45
2023-02-19T18:16:57.262Z,39.42
2023-02-19T18:19:27.785Z,38.15
2023-02-19T18:21:58.479Z,39.22
2023-02-19T18:24:29.106Z,33.80
2023-02-19T18:27:02.303Z,26.98
2023-02-19T18:29:35.079Z,26.23
2023-02-19T18:32:05.850Z,23.23
2023-02-19T18:34:36.465Z,24.98
2023-02-19T18:37:07.124Z,25.80
2023-02-19T18:39:37.711Z,25.38
2023-02-19T18:42:11.049Z,25.67
2023-02-19T18:44:42.322Z,25.02
2023-02-19T18:47:13.418Z,23.48
2023-02-19T18:49:47.736Z,22.80
2023-02-19T18:52:20.570Z,23.80
2023-02-19T18:54:52.070Z,21.10
2023-02-19T18:57:27.104Z,22.08
2023-02-19T18:59:57.718Z,22.90
2023-02-19T19:02:36.355Z,23.70
2023-02-19T19:05:07.200Z,21.65
2023-02-19T19:07:41.376Z,20.67
2023-02-19T19:10:19.445Z,20.60
2023-02-19T19:13:00.757Z,20.60
2023-02-19T19:15:33.044Z,21.95
2023-02-19T19:18:03.700Z,20.60
2023-02-19T19:20:34.295Z,19.17
2023-02-19T19:23:05.292Z,20.25
2023-02-19T19:25:35.838Z,16.75
2023-02-19T19:28:09.110Z,16.95
2023-02-19T19:30:39.812Z,15.18
2023-02-19T19:33:12.155Z,16.65
2023-02-19T19:35:44.813Z,14.93
2023-02-19T19:38:16.423Z,15.05
2023-02-19T19:40:47.126Z,13.60
2023-02-19T19:43:20.514Z,13.90
2023-02-19T19:45:51.264Z,12.55
2023-02-19T19:48:22.183Z,12.98
2023-02-19T19:50:52.913Z,14.00
2023-02-19T19:53:23.980Z,13.20
2023-02-19T19:55:55.472Z,12.05
2023-02-19T19:58:28.969Z,13.30
2023-02-19T20:01:01.913Z,11.57
2023-02-19T20:03:33.755Z,11.00
2023-02-19T20:06:04.676Z,11.05
2023-02-19T20:08:35.357Z,11.38
2023-02-19T20:11:06.470Z,10.23
2023-02-19T20:13:39.756Z,9.60
2023-02-19T20:16:12.650Z,9.20
2023-02-19T20:18:43.553Z,9.90
2023-02-19T20:21:14.746Z,9.95
2023-02-19T20:23:45.513Z,9.45
2023-02-19T20:26:16.091Z,10.93
2023-02-19T20:28:49.304Z,15.77
2023-02-19T20:31:20.868Z,22.85
2023-02-19T20:33:51.839Z,26.92
2023-02-19T20:36:22.904Z,24.00
2023-02-19T20:38:53.876Z,14.70
2023-02-19T20:41:24.924Z,12.95
2023-02-19T20:43:58.169Z,14.60
2023-02-19T20:46:30.076Z,20.88
2023-02-19T20:49:00.814Z,20.48
2023-02-19T20:51:31.475Z,18.60
2023-02-19T20:54:02.018Z,18.20
2023-02-19T20:56:32.805Z,19.55
2023-02-19T20:59:06.020Z,18.85
2023-02-19T21:01:36.663Z,17.50
2023-02-19T21:04:07.365Z,13.55
2023-02-19T21:06:38.477Z,13.77
2023-02-19T21:09:09.457Z,13.80
2023-02-19T21:11:40.164Z,14.75
2023-02-19T21:14:13.602Z,14.18
2023-02-19T21:16:44.537Z,14.68
2023-02-19T21:19:15.224Z,15.10
2023-02-19T21:21:45.995Z,12.85
2023-02-19T21:24:18.782Z,13.65
2023-02-19T21:26:49.473Z,12.55
2023-02-19T21:29:25.590Z,12.48
2023-02-19T21:31:58.998Z,13.35
2023-02-19T21:34:31.415Z,13.38
2023-02-19T21:37:02.159Z,13.13
2023-02-19T21:39:33.812Z,12.30
2023-02-19T21:42:04.400Z,12.30
2023-02-19T21:44:37.563Z,12.82
2023-02-19T21:47:08.370Z,13.32
2023-02-19T21:49:38.955Z,12.25
2023-02-19T21:52:09.674Z,11.77
2023-02-19T21:54:40.249Z,12.35
2023-02-19T21:57:11.345Z,13.48
2023-02-19T21:59:44.537Z,11.55
2023-02-19T22:02:15.316Z,10.77
2023-02-19T22:04:45.980Z,9.48
2023-02-19T22:07:16.557Z,10.90
2023-02-19T22:09:47.384Z,8.60
2023-02-19T22:12:18.155Z,8.20
2023-02-19T22:14:51.990Z,8.75
2023-02-19T22:17:22.949Z,8.30
2023-02-19T22:19:53.459Z,7.53
2023-02-19T22:22:24.151Z,7.88
2023-02-19T22:24:54.697Z,7.50
2023-02-19T22:27:25.529Z,7.40
2023-02-19T22:29:58.642Z,7.47
2023-02-19T22:32:29.545Z,7.00
2023-02-19T22:35:01.068Z,7.03
2023-02-19T22:37:34.246Z,7.50
2023-02-19T22:40:05.246Z,7.30
2023-02-19T22:42:36.260Z,7.80
2023-02-19T22:45:10.551Z,7.53
2023-02-19T22:47:42.486Z,7.30
2023-02-19T22:50:20.160Z,8.00
2023-02-19T22:52:54.637Z,8.05
2023-02-19T22:55:25.496Z,8.20
2023-02-19T22:57:56.668Z,6.80
2023-02-19T23:00:30.227Z,6.75
2023-02-19T23:03:01.128Z,7.28
2023-02-19T23:05:32.696Z,7.88
2023-02-19T23:08:03.375Z,7.18
2023-02-19T23:10:33.991Z,7.85
2023-02-19T23:13:04.544Z,7.32
2023-02-19T23:15:37.841Z,8.10
2023-02-19T23:18:08.796Z,7.47
2023-02-19T23:20:39.658Z,7.60
2023-02-19T23:23:10.297Z,6.95
2023-02-19T23:25:40.823Z,7.22
2023-02-19T23:28:11.407Z,7.65
2023-02-19T23:30:44.660Z,7.65
2023-02-19T23:33:15.212Z,7.55
2023-02-19T23:35:45.837Z,7.22
2023-02-19T23:38:16.350Z,7.35
2023-02-19T23:40:46.876Z,7.90
2023-02-19T23:43:17.468Z,6.93
2023-02-19T23:45:50.761Z,7.35
2023-02-19T23:48:21.468Z,7.22
2023-02-19T23:50:51.966Z,6.90
2023-02-19T23:53:22.662Z,7.03
2023-02-19T23:55:53.627Z,6.78
2023-02-19T23:58:24.212Z,7.15
